createdAt,value
2023-01-10T00:01:16.403Z,2.55
2023-01-10T00:03:20.687Z,3.05
2023-01-10T00:05:23.288Z,3.08
2023-01-10T00:07:25.829Z,4.93
2023-01-10T00:09:28.355Z,5.10
2023-01-10T00:11:48.622Z,7.10
2023-01-10T00:13:54.051Z,2.75
2023-01-10T00:15:57.867Z,2.10
2023-01-10T00:18:00.600Z,2.53
2023-01-10T00:20:07.176Z,2.38
2023-01-10T00:22:19.571Z,3.35
2023-01-10T00:24:23.531Z,3.80
2023-01-10T00:26:26.104Z,2.33
2023-01-10T00:28:28.831Z,3.20
2023-01-10T00:30:33.699Z,2.40
2023-01-10T00:32:36.264Z,1.77
2023-01-10T00:34:38.902Z,1.77
2023-01-10T00:36:42.935Z,1.38
2023-01-10T00:38:45.467Z,2.80
2023-01-10T00:40:48.017Z,1.98
2023-01-10T00:43:08.321Z,1.20
2023-01-10T00:45:11.812Z,1.55
2023-01-10T00:47:14.450Z,3.67
2023-01-10T00:49:17.679Z,0.90
2023-01-10T00:51:20.799Z,1.55
2023-01-10T00:53:24.713Z,2.63
2023-01-10T00:55:28.456Z,0.98
2023-01-10T00:57:31.013Z,1.08
2023-01-10T00:59:33.593Z,2.53
2023-01-10T01:01:36.414Z,3.00
2023-01-10T01:03:39.082Z,1.25
2023-01-10T01:05:42.031Z,2.88
2023-01-10T01:07:44.845Z,0.82
2023-01-10T01:10:06.179Z,1.08
2023-01-10T01:12:08.901Z,0.90
2023-01-10T01:14:11.942Z,2.15
2023-01-10T01:16:14.625Z,0.90
2023-01-10T01:18:19.203Z,0.60
2023-01-10T01:20:22.002Z,0.60
2023-01-10T01:22:24.540Z,1.98
2023-01-10T01:24:27.109Z,0.70
2023-01-10T01:26:31.044Z,1.60
2023-01-10T01:28:33.612Z,1.45
2023-01-10T01:30:36.647Z,2.30
2023-01-10T01:32:39.435Z,1.48
2023-01-10T01:34:42.023Z,2.08
2023-01-10T01:36:44.619Z,0.95
2023-01-10T01:38:47.259Z,1.45
2023-01-10T01:40:49.841Z,1.00
2023-01-10T01:42:55.824Z,0.80
2023-01-10T01:45:35.856Z,1.58
2023-01-10T01:47:43.624Z,1.13
2023-01-10T01:49:46.675Z,2.30
2023-01-10T01:51:52.633Z,1.10
2023-01-10T01:53:58.470Z,0.98
2023-01-10T01:56:03.973Z,0.85
2023-01-10T01:58:11.950Z,1.90
2023-01-10T02:00:15.561Z,0.85
2023-01-10T02:02:21.034Z,1.00
2023-01-10T02:04:29.048Z,2.88
2023-01-10T02:06:31.723Z,0.93
2023-01-10T02:08:34.925Z,3.20
2023-01-10T02:10:47.455Z,1.83
2023-01-10T02:12:53.190Z,0.93
2023-01-10T02:14:57.193Z,1.10
2023-01-10T02:16:59.731Z,0.95
2023-01-10T02:19:02.677Z,1.77
2023-01-10T02:21:25.476Z,1.65
2023-01-10T02:23:51.894Z,0.95
2023-01-10T02:26:29.616Z,1.02
2023-01-10T02:29:24.195Z,1.70
2023-01-10T02:31:42.763Z,1.80
2023-01-10T02:33:50.689Z,0.82
2023-01-10T02:36:08.046Z,1.67
2023-01-10T02:38:21.041Z,2.75
2023-01-10T02:40:29.466Z,4.10
2023-01-10T02:42:41.037Z,1.80
2023-01-10T02:44:51.705Z,1.90
2023-01-10T02:46:54.297Z,1.20
2023-01-10T02:48:58.281Z,1.08
2023-01-10T02:51:05.173Z,2.25
2023-01-10T02:53:11.756Z,1.08
2023-01-10T02:55:14.458Z,1.63
2023-01-10T02:57:37.097Z,0.80
2023-01-10T03:00:03.640Z,1.58
2023-01-10T03:02:18.680Z,3.10
2023-01-10T03:04:33.353Z,0.52
2023-01-10T03:06:44.620Z,2.30
2023-01-10T03:08:54.289Z,3.15
2023-01-10T03:10:59.969Z,1.52
2023-01-10T03:13:06.783Z,1.13
2023-01-10T03:15:11.805Z,2.10
2023-01-10T03:17:16.853Z,1.30
2023-01-10T03:19:23.728Z,1.63
2023-01-10T03:21:28.834Z,0.80
2023-01-10T03:23:34.775Z,1.00
2023-01-10T03:25:39.038Z,0.50
2023-01-10T03:27:52.916Z,0.82
2023-01-10T03:30:04.051Z,0.90
2023-01-10T03:32:14.231Z,1.13
2023-01-10T03:34:16.892Z,0.45
2023-01-10T03:36:31.135Z,0.43
2023-01-10T03:38:42.823Z,1.63
2023-01-10T03:40:55.530Z,0.50
2023-01-10T03:43:18.810Z,0.47
2023-01-10T03:45:27.788Z,0.55
2023-01-10T03:47:40.998Z,0.68
2023-01-10T03:49:47.935Z,0.20
2023-01-10T03:51:52.733Z,0.30
2023-01-10T03:53:55.491Z,0.25
2023-01-10T03:55:58.010Z,0.55
2023-01-10T03:58:00.555Z,0.25
2023-01-10T04:00:03.899Z,0.65
2023-01-10T04:02:06.560Z,0.57
2023-01-10T04:04:09.307Z,0.38
2023-01-10T04:06:11.911Z,0.95
2023-01-10T04:08:15.817Z,0.50
2023-01-10T04:10:18.477Z,0.40
2023-01-10T04:12:21.117Z,0.50
2023-01-10T04:14:23.719Z,0.40
2023-01-10T04:16:26.386Z,0.30
2023-01-10T04:18:28.953Z,0.93
2023-01-10T04:20:31.556Z,0.50
2023-01-10T04:22:34.114Z,0.80
2023-01-10T04:24:38.483Z,0.30
2023-01-10T04:26:41.092Z,0.52
2023-01-10T04:28:43.679Z,0.52
2023-01-10T04:30:46.244Z,0.47
2023-01-10T04:32:49.088Z,0.40
2023-01-10T04:34:51.752Z,0.70
2023-01-10T04:36:54.289Z,0.40
2023-01-10T04:38:56.830Z,0.63
2023-01-10T04:41:00.716Z,1.05
2023-01-10T04:43:03.279Z,0.50
2023-01-10T04:45:06.756Z,7.28
2023-01-10T04:47:09.375Z,1.75
2023-01-10T04:49:12.347Z,2.35
2023-01-10T04:51:14.889Z,1.15
2023-01-10T04:53:17.784Z,1.52
2023-01-10T04:55:20.455Z,1.05
2023-01-10T04:57:24.328Z,2.20
2023-01-10T04:59:26.996Z,1.13
2023-01-10T05:01:29.638Z,2.13
2023-01-10T05:03:32.222Z,1.45
2023-01-10T05:05:35.005Z,1.65
2023-01-10T05:07:38.205Z,3.20
2023-01-10T05:09:40.765Z,3.97
2023-01-10T05:11:43.415Z,2.10
2023-01-10T05:13:48.226Z,4.15
2023-01-10T05:15:50.867Z,2.22
2023-01-10T05:17:58.835Z,3.20
2023-01-10T05:20:01.352Z,2.42
2023-01-10T05:22:03.954Z,3.65
2023-01-10T05:24:07.457Z,3.45
2023-01-10T05:26:11.973Z,5.15
2023-01-10T05:28:14.558Z,7.35
2023-01-10T05:30:19.208Z,5.43
2023-01-10T05:32:21.797Z,7.15
2023-01-10T05:34:24.328Z,3.90
2023-01-10T05:36:26.878Z,7.85
2023-01-10T05:38:30.392Z,2.78
2023-01-10T05:40:35.413Z,9.98
2023-01-10T05:42:40.774Z,4.88
2023-01-10T05:44:43.537Z,4.80
2023-01-10T05:46:47.463Z,4.65
2023-01-10T05:48:50.042Z,6.15
2023-01-10T05:50:52.973Z,9.27
2023-01-10T05:52:55.569Z,7.20
2023-01-10T05:54:58.269Z,8.02
2023-01-10T05:57:00.807Z,10.55
2023-01-10T05:59:14.085Z,4.97
2023-01-10T06:01:25.925Z,4.55
2023-01-10T06:03:29.885Z,9.13
2023-01-10T06:05:32.503Z,5.47
2023-01-10T06:07:35.033Z,10.68
2023-01-10T06:09:37.598Z,7.45
2023-01-10T06:11:40.215Z,6.82
2023-01-10T06:13:42.766Z,8.32
2023-01-10T06:15:45.595Z,10.95
2023-01-10T06:17:48.181Z,14.10
2023-01-10T06:19:52.714Z,6.00
2023-01-10T06:21:55.250Z,10.02
2023-01-10T06:23:57.797Z,12.20
2023-01-10T06:26:00.327Z,10.63
2023-01-10T06:28:02.928Z,8.85
2023-01-10T06:30:06.307Z,12.27
2023-01-10T06:32:08.866Z,11.45
2023-01-10T06:34:11.499Z,8.63
2023-01-10T06:36:15.861Z,9.65
2023-01-10T06:38:18.470Z,7.28
2023-01-10T06:40:21.189Z,6.60
2023-01-10T06:42:23.874Z,9.75
2023-01-10T06:44:27.090Z,11.30
2023-01-10T06:46:29.707Z,9.32
2023-01-10T06:48:32.306Z,8.18
2023-01-10T06:50:34.872Z,10.20
2023-01-10T06:52:38.954Z,10.70
2023-01-10T06:54:42.204Z,9.05
2023-01-10T06:56:45.102Z,8.23
2023-01-10T06:58:49.621Z,12.68
2023-01-10T07:00:52.612Z,9.35
2023-01-10T07:02:56.265Z,10.75
2023-01-10T07:04:58.943Z,11.43
2023-01-10T07:07:01.823Z,11.68
2023-01-10T07:09:06.908Z,7.88
2023-01-10T07:11:13.124Z,12.38
2023-01-10T07:13:15.717Z,9.70
2023-01-10T07:15:18.371Z,13.25
2023-01-10T07:17:21.009Z,10.85
2023-01-10T07:19:23.620Z,11.70
2023-01-10T07:21:26.213Z,11.25
2023-01-10T07:23:30.553Z,8.52
2023-01-10T07:25:34.505Z,12.07
2023-01-10T07:27:37.250Z,9.80
2023-01-10T07:29:39.821Z,11.98
2023-01-10T07:31:42.450Z,18.75
2023-01-10T07:33:45.053Z,11.98
2023-01-10T07:35:47.623Z,11.77
2023-01-10T07:37:50.265Z,9.23
2023-01-10T07:39:52.782Z,17.58
2023-01-10T07:41:56.645Z,12.68
2023-01-10T07:43:59.230Z,11.85
2023-01-10T07:46:02.975Z,14.07
2023-01-10T07:48:06.360Z,11.63
2023-01-10T07:50:10.150Z,12.65
2023-01-10T07:52:12.731Z,8.10
2023-01-10T07:54:15.284Z,20.85
2023-01-10T07:56:17.928Z,17.13
2023-01-10T07:58:21.892Z,11.23
2023-01-10T08:00:24.889Z,10.10
2023-01-10T08:02:27.601Z,10.77
2023-01-10T08:04:30.193Z,15.27
2023-01-10T08:06:33.290Z,13.40
2023-01-10T08:08:35.835Z,14.57
2023-01-10T08:10:40.389Z,8.70
2023-01-10T08:12:42.943Z,14.85
2023-01-10T08:14:46.910Z,7.05
2023-01-10T08:16:49.526Z,10.00
2023-01-10T08:18:52.114Z,11.02
2023-01-10T08:20:55.813Z,14.90
2023-01-10T08:22:58.672Z,13.13
2023-01-10T08:25:01.233Z,11.18
2023-01-10T08:27:04.519Z,7.75
2023-01-10T08:29:07.076Z,7.93
2023-01-10T08:31:11.356Z,9.20
2023-01-10T08:33:14.384Z,11.63
2023-01-10T08:35:18.212Z,13.02
2023-01-10T08:37:20.905Z,6.72
2023-01-10T08:39:26.433Z,7.20
2023-01-10T08:41:29.424Z,15.43
2023-01-10T08:43:32.010Z,13.13
2023-01-10T08:45:35.365Z,13.18
2023-01-10T08:47:39.250Z,6.28
2023-01-10T08:49:41.794Z,12.68
2023-01-10T08:51:44.690Z,6.22
2023-01-10T08:53:47.288Z,8.63
2023-01-10T08:55:50.366Z,9.93
2023-01-10T08:57:52.973Z,10.45
2023-01-10T08:59:55.641Z,11.43
2023-01-10T09:01:59.902Z,8.52
2023-01-10T09:04:03.916Z,12.30
2023-01-10T09:06:08.317Z,7.32
2023-01-10T09:08:11.044Z,7.78
2023-01-10T09:10:14.031Z,11.23
2023-01-10T09:12:33.778Z,8.07
2023-01-10T09:14:36.350Z,8.30
2023-01-10T09:16:39.038Z,7.45
2023-01-10T09:18:41.586Z,8.43
2023-01-10T09:20:45.529Z,4.97
2023-01-10T09:22:48.056Z,14.18
2023-01-10T09:24:52.958Z,7.32
2023-01-10T09:26:55.532Z,11.65
2023-01-10T09:28:58.088Z,8.38
2023-01-10T09:31:01.162Z,5.57
2023-01-10T09:33:04.640Z,10.57
2023-01-10T09:35:07.570Z,7.35
2023-01-10T09:37:11.498Z,8.55
2023-01-10T09:39:14.020Z,8.20
2023-01-10T09:41:48.946Z,10.57
2023-01-10T09:44:02.196Z,5.63
2023-01-10T09:46:11.057Z,8.75
2023-01-10T09:48:20.783Z,8.10
2023-01-10T09:50:32.798Z,9.48
2023-01-10T09:52:40.856Z,6.07
2023-01-10T09:54:44.339Z,13.07
2023-01-10T09:56:48.777Z,7.47
2023-01-10T09:58:51.385Z,11.82
2023-01-10T10:00:58.363Z,12.52
2023-01-10T10:03:01.035Z,7.28
2023-01-10T10:05:13.946Z,9.52
2023-01-10T10:07:17.761Z,9.95
2023-01-10T10:09:24.942Z,6.95
2023-01-10T10:11:50.131Z,7.68
2023-01-10T10:14:02.889Z,9.00
2023-01-10T10:16:15.315Z,10.82
2023-01-10T10:18:28.440Z,10.00
2023-01-10T10:20:45.558Z,8.18
2023-01-10T10:22:57.947Z,6.95
2023-01-10T10:25:09.860Z,9.98
2023-01-10T10:27:22.445Z,14.35
2023-01-10T10:30:00.595Z,12.40
2023-01-10T10:32:24.347Z,8.13
2023-01-10T10:34:36.454Z,7.28
2023-01-10T10:36:44.181Z,6.85
2023-01-10T10:38:49.524Z,12.32
2023-01-10T10:40:55.783Z,7.75
2023-01-10T10:43:06.261Z,7.95
2023-01-10T10:45:18.827Z,16.27
2023-01-10T10:47:23.765Z,7.20
2023-01-10T10:49:35.013Z,11.40
2023-01-10T10:51:45.211Z,9.82
2023-01-10T10:53:48.334Z,12.25
2023-01-10T10:55:51.621Z,10.77
2023-01-10T10:58:00.438Z,9.80
2023-01-10T11:00:05.426Z,9.35
2023-01-10T11:02:22.396Z,9.20
2023-01-10T11:04:25.763Z,10.75
2023-01-10T11:06:33.969Z,11.18
2023-01-10T11:08:40.555Z,8.95
2023-01-10T11:10:45.309Z,8.50
2023-01-10T11:12:52.931Z,7.30
2023-01-10T11:14:56.857Z,11.98
2023-01-10T11:17:19.565Z,10.75
2023-01-10T11:19:24.118Z,6.90
2023-01-10T11:21:26.774Z,11.35
2023-01-10T11:23:38.491Z,6.88
2023-01-10T11:25:48.769Z,4.13
2023-01-10T11:27:54.223Z,6.40
2023-01-10T11:30:01.127Z,6.25
2023-01-10T11:32:10.918Z,9.73
2023-01-10T11:34:22.658Z,6.38
2023-01-10T11:36:25.212Z,11.35
2023-01-10T11:38:30.319Z,8.38
2023-01-10T11:40:34.095Z,13.65
2023-01-10T11:42:36.775Z,4.47
2023-01-10T11:44:39.385Z,6.88
2023-01-10T11:46:44.581Z,13.02
2023-01-10T11:49:08.562Z,7.00
2023-01-10T11:51:20.557Z,10.10
2023-01-10T11:53:42.941Z,5.75
2023-01-10T11:55:49.412Z,5.90
2023-01-10T11:57:59.119Z,8.52
2023-01-10T12:00:06.501Z,4.22
2023-01-10T12:02:23.657Z,7.28
2023-01-10T12:04:28.335Z,8.13
2023-01-10T12:06:31.256Z,5.32
2023-01-10T12:08:36.029Z,8.77
2023-01-10T12:10:38.667Z,9.52
2023-01-10T12:12:54.655Z,4.25
2023-01-10T12:14:59.345Z,4.85
2023-01-10T12:17:05.641Z,8.00
2023-01-10T12:19:16.585Z,8.20
2023-01-10T12:21:26.657Z,6.00
2023-01-10T12:23:30.119Z,7.30
2023-01-10T12:25:36.888Z,6.07
2023-01-10T12:27:39.463Z,5.90
2023-01-10T12:29:46.848Z,9.18
2023-01-10T12:31:51.897Z,10.75
2023-01-10T12:33:59.852Z,6.53
2023-01-10T12:36:14.037Z,10.27
2023-01-10T12:38:40.536Z,13.00
2023-01-10T12:40:48.370Z,7.15
2023-01-10T12:43:13.940Z,8.02
2023-01-10T12:45:23.440Z,7.28
2023-01-10T12:47:31.603Z,6.35
2023-01-10T12:49:37.653Z,10.32
2023-01-10T12:51:44.037Z,6.82
2023-01-10T12:53:51.231Z,6.05
2023-01-10T12:55:58.346Z,7.63
2023-01-10T12:58:03.652Z,7.20
2023-01-10T13:00:17.434Z,6.65
2023-01-10T13:02:23.991Z,7.63
2023-01-10T13:04:27.448Z,7.68
2023-01-10T13:06:33.958Z,2.75
2023-01-10T13:08:42.531Z,11.13
2023-01-10T13:10:48.554Z,7.18
2023-01-10T13:12:57.417Z,8.68
2023-01-10T13:15:06.048Z,13.45
2023-01-10T13:17:17.528Z,7.50
2023-01-10T13:19:26.304Z,5.13
2023-01-10T13:21:29.336Z,7.78
2023-01-10T13:23:34.037Z,8.30
2023-01-10T13:25:39.645Z,4.80
2023-01-10T13:27:42.392Z,6.88
2023-01-10T13:29:46.941Z,4.82
2023-01-10T13:31:57.003Z,7.25
2023-01-10T13:34:02.464Z,6.22
2023-01-10T13:36:11.615Z,4.65
2023-01-10T13:38:20.193Z,7.32
2023-01-10T13:40:27.375Z,6.22
2023-01-10T13:42:58.937Z,6.88
2023-01-10T13:45:32.197Z,9.02
2023-01-10T13:48:06.126Z,7.68
2023-01-10T13:50:46.605Z,8.35
2023-01-10T13:52:49.734Z,8.38
2023-01-10T13:54:57.415Z,10.32
2023-01-10T13:56:59.978Z,6.93
2023-01-10T13:59:23.680Z,7.22
2023-01-10T14:01:46.631Z,5.65
2023-01-10T14:03:52.069Z,8.18
2023-01-10T14:05:54.640Z,6.28
2023-01-10T14:07:58.078Z,5.88
2023-01-10T14:10:05.037Z,6.93
2023-01-10T14:12:18.025Z,6.50
2023-01-10T14:14:25.182Z,6.60
2023-01-10T14:16:31.666Z,7.15
2023-01-10T14:18:39.003Z,8.00
2023-01-10T14:20:42.637Z,6.47
2023-01-10T14:22:59.260Z,4.05
2023-01-10T14:25:04.025Z,13.57
2023-01-10T14:27:14.319Z,12.52
2023-01-10T14:29:18.931Z,5.95
2023-01-10T14:31:25.353Z,7.13
2023-01-10T14:33:29.260Z,8.48
2023-01-10T14:35:37.481Z,12.15
2023-01-10T14:37:43.790Z,5.43
2023-01-10T14:39:46.809Z,9.50
2023-01-10T14:41:53.198Z,5.28
2023-01-10T14:44:01.855Z,5.28
2023-01-10T14:46:07.280Z,7.03
2023-01-10T14:48:24.689Z,6.47
2023-01-10T14:50:30.049Z,7.40
2023-01-10T14:52:33.069Z,9.30
2023-01-10T14:54:35.609Z,6.97
2023-01-10T14:56:40.170Z,9.57
2023-01-10T14:58:42.794Z,10.68
2023-01-10T15:00:46.647Z,8.13
2023-01-10T15:02:50.039Z,9.15
2023-01-10T15:04:59.553Z,9.35
2023-01-10T15:07:04.133Z,6.55
2023-01-10T15:09:09.095Z,7.90
2023-01-10T15:11:14.001Z,9.43
2023-01-10T15:13:19.597Z,5.63
2023-01-10T15:15:30.830Z,11.02
2023-01-10T15:17:35.575Z,5.30
2023-01-10T15:19:40.515Z,8.45
2023-01-10T15:21:45.497Z,13.98
2023-01-10T15:23:48.334Z,12.30
2023-01-10T15:25:58.377Z,11.20
2023-01-10T15:28:02.740Z,7.53
2023-01-10T15:30:09.365Z,10.52
2023-01-10T15:32:19.381Z,8.68
2023-01-10T15:34:25.480Z,10.52
2023-01-10T15:36:29.403Z,12.40
2023-01-10T15:38:36.829Z,8.40
2023-01-10T15:40:41.423Z,8.10
2023-01-10T15:42:44.083Z,14.13
2023-01-10T15:44:52.454Z,6.80
2023-01-10T15:46:55.984Z,9.57
2023-01-10T15:49:01.462Z,15.25
2023-01-10T15:51:12.228Z,10.95
2023-01-10T15:53:14.780Z,12.05
2023-01-10T15:55:40.306Z,14.30
2023-01-10T15:57:42.889Z,12.25
2023-01-10T15:59:49.930Z,14.77
2023-01-10T16:01:59.910Z,10.05
2023-01-10T16:04:05.387Z,10.90
2023-01-10T16:06:09.823Z,10.95
2023-01-10T16:08:12.896Z,14.55
2023-01-10T16:10:22.020Z,8.32
2023-01-10T16:12:46.118Z,18.20
2023-01-10T16:14:48.660Z,17.17
2023-01-10T16:16:51.499Z,9.98
2023-01-10T16:18:54.107Z,9.15
2023-01-10T16:20:58.560Z,8.68
2023-01-10T16:23:01.444Z,9.52
2023-01-10T16:25:04.108Z,6.00
2023-01-10T16:27:07.538Z,9.02
2023-01-10T16:29:12.548Z,12.90
2023-01-10T16:31:15.580Z,7.75
2023-01-10T16:33:22.730Z,6.13
2023-01-10T16:35:25.900Z,8.38
2023-01-10T16:37:28.467Z,13.88
2023-01-10T16:39:31.014Z,10.05
2023-01-10T16:41:51.329Z,13.98
2023-01-10T16:43:53.890Z,10.00
2023-01-10T16:46:00.402Z,9.40
2023-01-10T16:48:03.394Z,10.32
2023-01-10T16:50:06.767Z,6.97
2023-01-10T16:52:13.730Z,8.23
2023-01-10T16:54:20.133Z,8.55
2023-01-10T16:56:26.349Z,9.00
2023-01-10T16:58:28.950Z,10.82
2023-01-10T17:00:31.568Z,8.38
2023-01-10T17:02:35.581Z,8.35
2023-01-10T17:04:39.865Z,10.90
2023-01-10T17:06:42.526Z,10.25
2023-01-10T17:08:45.341Z,9.55
2023-01-10T17:10:50.330Z,13.95
2023-01-10T17:12:53.065Z,7.78
2023-01-10T17:14:55.674Z,9.18
2023-01-10T17:16:59.695Z,11.77
2023-01-10T17:19:03.900Z,9.73
2023-01-10T17:21:06.940Z,15.98
2023-01-10T17:23:11.593Z,10.25
2023-01-10T17:25:16.842Z,9.32
2023-01-10T17:27:19.397Z,8.75
2023-01-10T17:29:23.406Z,11.82
2023-01-10T17:31:26.104Z,7.88
2023-01-10T17:33:28.800Z,10.68
2023-01-10T17:35:33.115Z,8.98
2023-01-10T17:37:36.174Z,8.75
2023-01-10T17:39:39.303Z,8.88
2023-01-10T17:41:42.043Z,8.55
2023-01-10T17:43:44.617Z,9.77
2023-01-10T17:45:48.590Z,6.28
2023-01-10T17:47:52.712Z,9.75
2023-01-10T17:49:55.249Z,7.95
2023-01-10T17:51:59.287Z,10.30
2023-01-10T17:54:01.989Z,7.13
2023-01-10T17:56:06.723Z,11.38
2023-01-10T17:58:09.998Z,9.15
2023-01-10T18:00:13.562Z,8.80
2023-01-10T18:02:18.799Z,11.63
2023-01-10T18:04:21.514Z,9.45
2023-01-10T18:06:25.050Z,7.47
2023-01-10T18:08:29.469Z,11.68
2023-01-10T18:10:32.159Z,8.43
2023-01-10T18:12:34.792Z,9.82
2023-01-10T18:14:37.372Z,9.57
2023-01-10T18:16:39.968Z,7.32
2023-01-10T18:18:42.576Z,10.50
2023-01-10T18:20:46.322Z,11.40
2023-01-10T18:23:11.581Z,6.68
2023-01-10T18:25:17.459Z,9.73
2023-01-10T18:27:20.246Z,9.63
2023-01-10T18:29:22.943Z,10.30
2023-01-10T18:31:25.921Z,9.45
2023-01-10T18:33:28.491Z,6.10
2023-01-10T18:35:31.085Z,9.70
2023-01-10T18:37:34.425Z,8.95
2023-01-10T18:39:36.975Z,5.53
2023-01-10T18:41:40.875Z,10.18
2023-01-10T18:43:43.469Z,12.18
2023-01-10T18:45:47.912Z,6.03
2023-01-10T18:47:55.228Z,8.02
2023-01-10T18:49:57.887Z,5.85
2023-01-10T18:52:00.833Z,11.18
2023-01-10T18:54:03.397Z,10.02
2023-01-10T18:56:06.792Z,6.80
2023-01-10T18:58:10.713Z,7.32
2023-01-10T19:00:14.375Z,9.55
2023-01-10T19:02:18.004Z,10.77
2023-01-10T19:04:23.057Z,9.98
2023-01-10T19:06:26.138Z,4.80
2023-01-10T19:08:28.937Z,13.18
2023-01-10T19:10:49.821Z,7.00
2023-01-10T19:12:54.543Z,8.15
2023-01-10T19:14:58.731Z,6.15
2023-01-10T19:17:03.581Z,11.82
2023-01-10T19:19:09.408Z,6.38
2023-01-10T19:21:15.338Z,4.63
2023-01-10T19:23:18.078Z,9.70
2023-01-10T19:25:21.168Z,9.18
2023-01-10T19:27:23.718Z,7.88
2023-01-10T19:29:26.376Z,9.45
2023-01-10T19:31:30.836Z,7.93
2023-01-10T19:33:34.242Z,9.55
2023-01-10T19:35:40.921Z,11.48
2023-01-10T19:37:43.476Z,8.30
2023-01-10T19:39:48.235Z,8.15
2023-01-10T19:41:50.811Z,7.25
2023-01-10T19:43:58.008Z,12.15
2023-01-10T19:46:00.722Z,9.57
2023-01-10T19:48:05.049Z,7.72
2023-01-10T19:50:08.118Z,5.10
2023-01-10T19:52:10.681Z,6.38
2023-01-10T19:54:13.259Z,5.50
2023-01-10T19:56:21.666Z,7.28
2023-01-10T19:58:24.363Z,4.20
2023-01-10T20:00:26.935Z,7.13
2023-01-10T20:02:29.593Z,5.55
2023-01-10T20:04:33.501Z,10.20
2023-01-10T20:06:38.524Z,5.05
2023-01-10T20:08:41.620Z,3.25
2023-01-10T20:10:44.961Z,4.20
2023-01-10T20:12:47.570Z,9.98
2023-01-10T20:14:51.616Z,8.50
2023-01-10T20:16:54.175Z,8.75
2023-01-10T20:18:56.712Z,6.60
2023-01-10T20:21:04.043Z,6.57
2023-01-10T20:23:07.011Z,7.65
2023-01-10T20:25:09.963Z,8.52
2023-01-10T20:27:12.516Z,6.95
2023-01-10T20:29:18.577Z,8.27
2023-01-10T20:31:23.149Z,9.65
2023-01-10T20:33:26.831Z,7.25
2023-01-10T20:35:29.354Z,5.28
2023-01-10T20:37:33.278Z,4.93
2023-01-10T20:39:35.826Z,5.35
2023-01-10T20:41:38.378Z,5.50
2023-01-10T20:43:41.676Z,4.75
2023-01-10T20:45:44.374Z,8.35
2023-01-10T20:47:50.649Z,11.80
2023-01-10T20:49:53.281Z,7.20
2023-01-10T20:51:55.862Z,6.05
2023-01-10T20:54:00.528Z,8.98
2023-01-10T20:56:03.868Z,17.08
2023-01-10T20:58:07.338Z,6.57
2023-01-10T21:00:11.560Z,5.57
2023-01-10T21:02:14.159Z,8.35
2023-01-10T21:04:16.778Z,9.65
2023-01-10T21:06:20.649Z,6.30
2023-01-10T21:08:23.541Z,6.32
2023-01-10T21:10:27.430Z,3.15
2023-01-10T21:12:31.172Z,4.63
2023-01-10T21:14:33.748Z,8.88
2023-01-10T21:16:36.326Z,6.25
2023-01-10T21:18:41.247Z,9.48
2023-01-10T21:20:44.941Z,7.65
2023-01-10T21:22:47.542Z,5.38
2023-01-10T21:24:52.248Z,7.88
2023-01-10T21:26:56.115Z,6.35
2023-01-10T21:28:58.694Z,6.90
2023-01-10T21:31:01.300Z,5.00
2023-01-10T21:33:04.590Z,5.78
2023-01-10T21:35:07.817Z,5.80
2023-01-10T21:37:10.348Z,6.90
2023-01-10T21:39:12.909Z,8.23
2023-01-10T21:41:39.069Z,7.30
2023-01-10T21:43:44.468Z,5.88
2023-01-10T21:45:47.225Z,6.38
2023-01-10T21:47:50.425Z,6.45
2023-01-10T21:49:53.039Z,6.90
2023-01-10T21:51:56.385Z,5.28
2023-01-10T21:53:59.175Z,6.10
2023-01-10T21:56:01.769Z,5.72
2023-01-10T21:58:04.700Z,8.63
2023-01-10T22:00:10.311Z,7.10
2023-01-10T22:02:15.130Z,7.80
2023-01-10T22:04:17.929Z,3.42
2023-01-10T22:06:20.634Z,4.55
2023-01-10T22:08:23.994Z,9.30
2023-01-10T22:10:26.584Z,4.78
2023-01-10T22:12:30.579Z,5.32
2023-01-10T22:14:33.134Z,6.35
2023-01-10T22:16:37.069Z,6.55
2023-01-10T22:18:39.646Z,7.47
2023-01-10T22:20:44.943Z,5.55
2023-01-10T22:22:47.471Z,8.23
2023-01-10T22:24:50.121Z,6.25
2023-01-10T22:26:54.484Z,6.03
2023-01-10T22:28:57.061Z,3.92
2023-01-10T22:31:00.237Z,7.00
2023-01-10T22:33:04.255Z,8.55
2023-01-10T22:35:07.853Z,5.50
2023-01-10T22:37:10.382Z,6.25
2023-01-10T22:39:12.997Z,6.40
2023-01-10T22:41:17.771Z,8.25
2023-01-10T22:43:20.346Z,9.02
2023-01-10T22:45:22.917Z,8.10
2023-01-10T22:47:25.469Z,5.90
2023-01-10T22:49:29.345Z,5.72
2023-01-10T22:51:35.404Z,5.60
2023-01-10T22:53:37.976Z,6.25
2023-01-10T22:55:40.486Z,3.38
2023-01-10T22:57:47.203Z,5.22
2023-01-10T22:59:50.110Z,4.07
2023-01-10T23:01:52.655Z,7.13
2023-01-10T23:03:55.314Z,8.40
2023-01-10T23:05:59.902Z,3.90
2023-01-10T23:08:02.518Z,11.93
2023-01-10T23:10:08.434Z,6.38
2023-01-10T23:12:14.992Z,7.57
2023-01-10T23:14:17.532Z,6.25
2023-01-10T23:16:28.228Z,4.15
2023-01-10T23:18:31.376Z,5.75
2023-01-10T23:20:35.204Z,6.43
2023-01-10T23:22:39.115Z,6.47
2023-01-10T23:24:41.704Z,4.38
2023-01-10T23:26:44.269Z,3.97
2023-01-10T23:28:48.401Z,3.95
2023-01-10T23:30:51.948Z,4.38
2023-01-10T23:32:55.666Z,4.65
2023-01-10T23:34:58.196Z,8.65
2023-01-10T23:37:00.769Z,5.45
2023-01-10T23:39:04.943Z,3.70
2023-01-10T23:41:07.746Z,5.95
2023-01-10T23:43:10.322Z,7.55
2023-01-10T23:45:15.326Z,4.38
2023-01-10T23:47:18.069Z,5.88
2023-01-10T23:49:20.625Z,6.75
2023-01-10T23:51:23.164Z,6.28
2023-01-10T23:53:25.946Z,5.32
2023-01-10T23:55:31.177Z,5.22
2023-01-10T23:57:33.731Z,3.13
2023-01-10T23:59:36.279Z,2.88
